createdAt,value
2018-01-01T00:00:18.988Z,997.57
2018-01-01T00:01:46.433Z,997.55
2018-01-01T00:03:13.391Z,997.53
2018-01-01T00:04:40.901Z,997.51
2018-01-01T00:06:08.336Z,997.44
2018-01-01T00:07:35.521Z,997.32
2018-01-01T00:09:02.927Z,997.30
2018-01-01T00:10:30.302Z,997.29
2018-01-01T00:11:57.647Z,997.35
2018-01-01T00:13:25.002Z,997.36
2018-01-01T00:14:49.253Z,997.30
2018-01-01T00:16:19.597Z,997.34
2018-01-01T00:17:46.927Z,997.27
2018-01-01T00:19:13.802Z,997.27
2018-01-01T00:20:40.969Z,997.24
2018-01-01T00:22:08.436Z,997.24
2018-01-01T00:23:35.766Z,997.25
2018-01-01T00:25:03.090Z,997.28
2018-01-01T00:26:30.613Z,997.25
2018-01-01T00:27:57.789Z,997.21
2018-01-01T00:29:25.273Z,997.19
2018-01-01T00:30:52.624Z,997.18
2018-01-01T00:32:20.032Z,997.20
2018-01-01T00:33:47.564Z,997.20
2018-01-01T00:35:14.972Z,997.25
2018-01-01T00:36:42.199Z,997.22
2018-01-01T00:38:09.611Z,997.16
2018-01-01T00:39:36.980Z,997.14
2018-01-01T00:41:04.367Z,997.10
2018-01-01T00:42:31.825Z,997.10
2018-01-01T00:43:59.239Z,997.14
2018-01-01T00:45:26.457Z,997.22
2018-01-01T00:46:53.782Z,997.23
2018-01-01T00:48:21.123Z,997.26
2018-01-01T00:49:48.465Z,997.26
2018-01-01T00:51:15.814Z,997.29
2018-01-01T00:52:42.903Z,997.27
2018-01-01T00:54:10.414Z,997.30
2018-01-01T00:55:37.882Z,997.32
2018-01-01T00:57:05.316Z,997.30
2018-01-01T00:58:32.531Z,997.31
2018-01-01T00:59:59.928Z,997.29
2018-01-01T01:01:27.331Z,997.32
2018-01-01T01:02:51.668Z,997.31
2018-01-01T01:04:21.999Z,997.35
2018-01-01T01:05:49.280Z,997.36
2018-01-01T01:07:16.615Z,997.43
2018-01-01T01:08:43.993Z,997.52
2018-01-01T01:10:11.425Z,997.56
2018-01-01T01:11:38.757Z,997.60
2018-01-01T01:13:06.042Z,997.61
2018-01-01T01:14:33.485Z,997.66
2018-01-01T01:16:00.946Z,997.67
2018-01-01T01:17:28.120Z,997.69
2018-01-01T01:18:55.541Z,997.76
2018-01-01T01:20:22.675Z,997.79
2018-01-01T01:21:49.937Z,997.84
2018-01-01T01:23:17.280Z,997.85
2018-01-01T01:24:44.488Z,997.84
2018-01-01T01:26:11.977Z,997.80
2018-01-01T01:27:39.192Z,997.74
2018-01-01T01:29:06.568Z,997.72
2018-01-01T01:30:33.823Z,997.71
2018-01-01T01:32:01.206Z,997.66
2018-01-01T01:33:28.589Z,997.62
2018-01-01T01:34:55.638Z,997.61
2018-01-01T01:36:22.932Z,997.57
2018-01-01T01:37:50.315Z,997.59
2018-01-01T01:39:17.726Z,997.59
2018-01-01T01:40:45.013Z,997.59
2018-01-01T01:42:12.544Z,997.62
2018-01-01T01:43:39.756Z,997.68
2018-01-01T01:45:07.149Z,997.74
2018-01-01T01:46:34.406Z,997.82
2018-01-01T01:48:01.861Z,997.88
2018-01-01T01:49:29.180Z,997.91
2018-01-01T01:50:56.488Z,997.99
2018-01-01T01:52:23.908Z,998.03
2018-01-01T01:53:51.012Z,998.07
2018-01-01T01:55:18.331Z,998.10
2018-01-01T01:56:45.540Z,998.09
2018-01-01T01:58:12.822Z,998.12
2018-01-01T01:59:40.185Z,998.18
2018-01-01T02:01:07.410Z,998.22
2018-01-01T02:02:34.812Z,998.20
2018-01-01T02:04:02.144Z,998.20
2018-01-01T02:05:29.167Z,998.13
2018-01-01T02:06:56.194Z,998.11
2018-01-01T02:08:23.253Z,998.14
2018-01-01T02:09:50.625Z,998.12
2018-01-01T02:11:17.820Z,998.10
2018-01-01T02:12:45.199Z,998.17
2018-01-01T02:14:12.512Z,998.21
2018-01-01T02:15:39.946Z,998.17
2018-01-01T02:17:07.333Z,998.18
2018-01-01T02:18:34.746Z,998.20
2018-01-01T02:20:02.002Z,998.21
2018-01-01T02:21:29.207Z,998.24
2018-01-01T02:22:56.516Z,998.14
2018-01-01T02:24:23.883Z,998.15
2018-01-01T02:25:51.266Z,998.24
2018-01-01T02:27:18.560Z,998.23
2018-01-01T02:28:45.754Z,998.20
2018-01-01T02:30:12.895Z,998.23
2018-01-01T02:31:40.087Z,998.20
2018-01-01T02:33:07.477Z,998.16
2018-01-01T02:34:34.800Z,998.13
2018-01-01T02:36:02.065Z,998.15
2018-01-01T02:37:29.434Z,998.15
2018-01-01T02:38:56.778Z,998.15
2018-01-01T02:40:23.989Z,998.13
2018-01-01T02:41:51.252Z,998.14
2018-01-01T02:43:18.574Z,998.16
2018-01-01T02:44:45.731Z,998.14
2018-01-01T02:46:12.959Z,998.11
2018-01-01T02:47:40.446Z,998.10
2018-01-01T02:49:07.783Z,998.06
2018-01-01T02:50:35.095Z,998.02
2018-01-01T02:52:02.464Z,998.03
2018-01-01T02:53:29.861Z,998.00
2018-01-01T02:54:56.979Z,997.98
2018-01-01T02:56:24.318Z,997.97
2018-01-01T02:57:51.684Z,998.01
2018-01-01T02:59:19.042Z,998.04
2018-01-01T03:00:46.445Z,998.08
2018-01-01T03:02:13.716Z,998.10
2018-01-01T03:03:41.248Z,998.19
2018-01-01T03:05:08.632Z,998.21
2018-01-01T03:06:35.804Z,998.24
2018-01-01T03:08:03.062Z,998.24
2018-01-01T03:09:30.457Z,998.22
2018-01-01T03:10:57.755Z,998.24
2018-01-01T03:12:24.972Z,998.26
2018-01-01T03:13:52.180Z,998.30
2018-01-01T03:15:19.440Z,998.34
2018-01-01T03:16:46.766Z,998.35
2018-01-01T03:18:14.016Z,998.35
2018-01-01T03:19:41.359Z,998.34
2018-01-01T03:21:08.790Z,998.38
2018-01-01T03:22:36.028Z,998.37
2018-01-01T03:24:03.302Z,998.38
2018-01-01T03:25:30.541Z,998.38
2018-01-01T03:26:57.750Z,998.33
2018-01-01T03:28:24.998Z,998.30
2018-01-01T03:29:52.447Z,998.25
2018-01-01T03:31:19.601Z,998.22
2018-01-01T03:32:46.947Z,998.20
2018-01-01T03:34:14.362Z,998.24
2018-01-01T03:35:41.582Z,998.27
2018-01-01T03:37:08.914Z,998.18
2018-01-01T03:38:36.374Z,998.17
2018-01-01T03:40:03.379Z,998.15
2018-01-01T03:41:30.711Z,998.13
2018-01-01T03:42:57.556Z,998.17
2018-01-01T03:44:24.768Z,998.20
2018-01-01T03:45:52.215Z,998.21
2018-01-01T03:47:19.428Z,998.22
2018-01-01T03:48:46.773Z,998.30
2018-01-01T03:50:14.011Z,998.31
2018-01-01T03:51:40.993Z,998.40
2018-01-01T03:53:08.364Z,998.44
2018-01-01T03:54:35.602Z,998.48
2018-01-01T03:56:02.808Z,998.49
2018-01-01T03:57:30.286Z,998.53
2018-01-01T03:58:57.602Z,998.55
2018-01-01T04:00:25.060Z,998.55
2018-01-01T04:01:52.228Z,998.53
2018-01-01T04:03:19.686Z,998.48
2018-01-01T04:04:47.021Z,998.51
2018-01-01T04:06:14.276Z,998.56
2018-01-01T04:07:41.701Z,998.53
2018-01-01T04:09:08.930Z,998.51
2018-01-01T04:10:36.258Z,998.50
2018-01-01T04:12:03.572Z,998.55
2018-01-01T04:13:30.897Z,998.56
2018-01-01T04:14:58.186Z,998.49
2018-01-01T04:16:25.550Z,998.50
2018-01-01T04:17:52.977Z,998.48
2018-01-01T04:19:20.240Z,998.46
2018-01-01T04:20:47.540Z,998.48
2018-01-01T04:22:14.829Z,998.49
2018-01-01T04:23:42.002Z,998.47
2018-01-01T04:25:09.231Z,998.52
2018-01-01T04:26:36.355Z,998.47
2018-01-01T04:28:03.538Z,998.47
2018-01-01T04:29:31.017Z,998.50
2018-01-01T04:30:58.226Z,998.53
2018-01-01T04:32:25.587Z,998.61
2018-01-01T04:33:52.766Z,998.60
2018-01-01T04:35:20.085Z,998.58
2018-01-01T04:36:47.433Z,998.60
2018-01-01T04:38:14.696Z,998.59
2018-01-01T04:39:42.022Z,998.59
2018-01-01T04:41:09.380Z,998.52
2018-01-01T04:42:36.576Z,998.53
2018-01-01T04:44:03.934Z,998.56
2018-01-01T04:45:31.062Z,998.55
2018-01-01T04:46:58.255Z,998.55
2018-01-01T04:48:25.644Z,998.55
2018-01-01T04:49:52.937Z,998.52
2018-01-01T04:51:20.170Z,998.57
2018-01-01T04:52:47.514Z,998.62
2018-01-01T04:54:14.760Z,998.64
2018-01-01T04:55:41.891Z,998.62
2018-01-01T04:57:09.206Z,998.61
2018-01-01T04:58:36.566Z,998.61
2018-01-01T05:00:03.936Z,998.59
2018-01-01T05:01:31.364Z,998.61
2018-01-01T05:02:58.842Z,998.62
2018-01-01T05:04:26.154Z,998.59
2018-01-01T05:05:53.365Z,998.59
2018-01-01T05:07:20.768Z,998.58
2018-01-01T05:08:48.066Z,998.58
2018-01-01T05:10:15.270Z,998.60
2018-01-01T05:11:42.514Z,998.61
2018-01-01T05:13:09.846Z,998.61
2018-01-01T05:14:37.212Z,998.60
2018-01-01T05:16:04.516Z,998.60
2018-01-01T05:17:31.892Z,998.62
2018-01-01T05:18:59.173Z,998.61
2018-01-01T05:20:26.213Z,998.61
2018-01-01T05:21:53.598Z,998.64
2018-01-01T05:23:21.030Z,998.64
2018-01-01T05:24:48.247Z,998.61
2018-01-01T05:26:15.603Z,998.57
2018-01-01T05:27:42.658Z,998.58
2018-01-01T05:29:09.995Z,998.56
2018-01-01T05:30:37.230Z,998.52
2018-01-01T05:32:04.718Z,998.56
2018-01-01T05:33:31.912Z,998.53
2018-01-01T05:34:59.073Z,998.56
2018-01-01T05:36:26.416Z,998.55
2018-01-01T05:37:53.565Z,998.56
2018-01-01T05:39:20.921Z,998.55
2018-01-01T05:40:48.136Z,998.50
2018-01-01T05:42:15.506Z,998.55
2018-01-01T05:43:42.497Z,998.57
2018-01-01T05:45:09.581Z,998.54
2018-01-01T05:46:36.772Z,998.59
2018-01-01T05:48:03.961Z,998.63
2018-01-01T05:49:31.258Z,998.64
2018-01-01T05:50:58.366Z,998.62
2018-01-01T05:52:25.800Z,998.63
2018-01-01T05:53:52.927Z,998.64
2018-01-01T05:55:20.108Z,998.60
2018-01-01T05:56:47.148Z,998.58
2018-01-01T05:58:14.285Z,998.66
2018-01-01T05:59:41.569Z,998.59
2018-01-01T06:01:08.920Z,998.60
2018-01-01T06:02:36.215Z,998.64
2018-01-01T06:04:03.346Z,998.65
2018-01-01T06:05:30.663Z,998.67
2018-01-01T06:06:57.928Z,998.64
2018-01-01T06:08:25.119Z,998.69
2018-01-01T06:09:52.719Z,998.76
2018-01-01T06:11:19.710Z,998.73
2018-01-01T06:12:46.835Z,998.75
2018-01-01T06:14:14.214Z,998.80
2018-01-01T06:15:41.105Z,998.81
2018-01-01T06:17:08.438Z,998.84
2018-01-01T06:18:35.588Z,998.79
2018-01-01T06:20:03.017Z,998.76
2018-01-01T06:21:30.400Z,998.79
2018-01-01T06:22:57.738Z,998.78
2018-01-01T06:24:25.040Z,998.76
2018-01-01T06:25:52.409Z,998.76
2018-01-01T06:27:19.725Z,998.78
2018-01-01T06:28:46.882Z,998.81
2018-01-01T06:30:14.097Z,998.83
2018-01-01T06:31:41.213Z,998.80
2018-01-01T06:33:08.571Z,998.80
2018-01-01T06:34:35.699Z,998.84
2018-01-01T06:36:03.059Z,998.82
2018-01-01T06:37:30.297Z,998.81
2018-01-01T06:38:57.767Z,998.84
2018-01-01T06:40:25.230Z,998.83
2018-01-01T06:41:52.517Z,998.91
2018-01-01T06:43:19.848Z,998.95
2018-01-01T06:44:46.969Z,998.95
2018-01-01T06:46:14.295Z,999.00
2018-01-01T06:47:41.554Z,999.00
2018-01-01T06:49:08.956Z,999.07
2018-01-01T06:50:36.210Z,999.02
2018-01-01T06:52:03.541Z,998.95
2018-01-01T06:53:30.471Z,998.92
2018-01-01T06:54:57.652Z,998.96
2018-01-01T06:56:24.782Z,998.90
2018-01-01T06:57:52.102Z,998.93
2018-01-01T06:59:19.476Z,998.92
2018-01-01T07:00:46.834Z,998.88
2018-01-01T07:02:13.735Z,998.94
2018-01-01T07:03:41.081Z,998.89
2018-01-01T07:05:08.263Z,998.99
2018-01-01T07:06:35.655Z,998.98
2018-01-01T07:08:03.182Z,998.99
2018-01-01T07:09:30.596Z,998.94
2018-01-01T07:10:57.618Z,998.94
2018-01-01T07:12:24.961Z,998.97
2018-01-01T07:13:52.156Z,998.98
2018-01-01T07:15:19.293Z,999.04
2018-01-01T07:16:46.547Z,999.00
2018-01-01T07:18:13.641Z,998.99
2018-01-01T07:19:40.962Z,999.01
2018-01-01T07:21:08.445Z,999.05
2018-01-01T07:22:35.551Z,999.12
2018-01-01T07:24:02.837Z,999.08
2018-01-01T07:25:30.045Z,999.11
2018-01-01T07:26:57.216Z,999.11
2018-01-01T07:28:24.675Z,999.07
2018-01-01T07:29:51.898Z,999.03
2018-01-01T07:31:19.170Z,999.07
2018-01-01T07:32:46.551Z,999.06
2018-01-01T07:34:13.737Z,999.08
2018-01-01T07:35:41.231Z,999.14
2018-01-01T07:37:08.467Z,999.10
2018-01-01T07:38:35.937Z,999.11
2018-01-01T07:40:03.101Z,999.14
2018-01-01T07:41:30.391Z,999.12
2018-01-01T07:42:57.838Z,999.18
2018-01-01T07:44:25.236Z,999.15
2018-01-01T07:45:52.344Z,999.17
2018-01-01T07:47:19.723Z,999.21
2018-01-01T07:48:47.122Z,999.26
2018-01-01T07:50:14.244Z,999.29
2018-01-01T07:51:41.515Z,999.28
2018-01-01T07:53:08.825Z,999.29
2018-01-01T07:54:36.220Z,999.23
2018-01-01T07:56:03.333Z,999.23
2018-01-01T07:57:30.688Z,999.22
2018-01-01T07:58:58.038Z,999.29
2018-01-01T08:00:25.461Z,999.31
2018-01-01T08:01:52.356Z,999.28
2018-01-01T08:03:19.692Z,999.32
2018-01-01T08:04:46.935Z,999.31
2018-01-01T08:06:13.869Z,999.28
2018-01-01T08:07:41.315Z,999.33
2018-01-01T08:09:08.653Z,999.41
2018-01-01T08:10:36.220Z,999.40
2018-01-01T08:12:03.466Z,999.46
2018-01-01T08:13:30.678Z,999.47
2018-01-01T08:14:57.927Z,999.60
2018-01-01T08:16:25.046Z,999.57
2018-01-01T08:17:52.392Z,999.56
2018-01-01T08:19:19.519Z,999.64
2018-01-01T08:20:46.462Z,999.67
2018-01-01T08:22:13.177Z,999.74
2018-01-01T08:23:40.363Z,999.75
2018-01-01T08:25:07.699Z,999.80
2018-01-01T08:26:34.932Z,999.91
2018-01-01T08:28:02.349Z,999.85
2018-01-01T08:29:29.837Z,999.86
2018-01-01T08:30:57.082Z,999.88
2018-01-01T08:32:24.370Z,999.85
2018-01-01T08:33:51.606Z,999.86
2018-01-01T08:35:18.999Z,999.92
2018-01-01T08:36:45.861Z,999.95
2018-01-01T08:38:12.972Z,999.96
2018-01-01T08:39:40.481Z,999.96
2018-01-01T08:41:07.782Z,999.97
2018-01-01T08:42:34.913Z,1000.02
2018-01-01T08:44:01.653Z,1000.00
2018-01-01T08:45:29.012Z,1000.02
2018-01-01T08:46:56.343Z,1000.04
2018-01-01T08:48:23.344Z,1000.10
2018-01-01T08:49:50.518Z,1000.02
2018-01-01T08:51:17.873Z,1000.08
2018-01-01T08:52:45.026Z,1000.13
2018-01-01T08:54:11.997Z,1000.13
2018-01-01T08:55:39.384Z,1000.19
2018-01-01T08:57:06.685Z,1000.20
2018-01-01T08:58:33.964Z,1000.21
2018-01-01T09:00:01.311Z,1000.24
2018-01-01T09:01:28.777Z,1000.26
2018-01-01T09:02:55.819Z,1000.29
2018-01-01T09:04:23.485Z,1000.32
2018-01-01T09:05:50.875Z,1000.34
2018-01-01T09:07:18.260Z,1000.37
2018-01-01T09:08:45.507Z,1000.45
2018-01-01T09:10:12.543Z,1000.47
2018-01-01T09:11:39.850Z,1000.49
2018-01-01T09:13:07.244Z,1000.55
2018-01-01T09:14:34.446Z,1000.55
2018-01-01T09:16:01.779Z,1000.61
2018-01-01T09:17:29.018Z,1000.64
2018-01-01T09:18:56.273Z,1000.71
2018-01-01T09:20:23.416Z,1000.68
2018-01-01T09:21:50.593Z,1000.73
2018-01-01T09:23:17.877Z,1000.80
2018-01-01T09:24:45.080Z,1000.90
2018-01-01T09:26:12.207Z,1000.87
2018-01-01T09:27:39.502Z,1000.89
2018-01-01T09:29:06.816Z,1000.90
2018-01-01T09:30:34.206Z,1000.93
2018-01-01T09:32:01.374Z,1001.02
2018-01-01T09:33:28.736Z,1000.93
2018-01-01T09:34:56.011Z,1000.95
2018-01-01T09:36:23.310Z,1000.96
2018-01-01T09:37:50.579Z,1000.84
2018-01-01T09:39:17.711Z,1000.86
2018-01-01T09:40:41.873Z,1000.86
2018-01-01T09:42:12.117Z,1000.89
2018-01-01T09:43:39.544Z,1000.90
2018-01-01T09:45:06.962Z,1000.88
2018-01-01T09:46:34.088Z,1000.99
2018-01-01T09:48:01.276Z,1000.94
2018-01-01T09:49:28.491Z,1000.97
2018-01-01T09:50:55.710Z,1000.96
2018-01-01T09:52:22.986Z,1001.03
2018-01-01T09:53:50.332Z,1001.01
2018-01-01T09:55:17.570Z,1001.00
2018-01-01T09:56:44.954Z,1001.03
2018-01-01T09:58:12.099Z,1001.01
2018-01-01T09:59:39.398Z,1001.07
2018-01-01T10:01:06.522Z,1001.04
2018-01-01T10:02:33.779Z,1001.04
2018-01-01T10:04:00.945Z,1001.06
2018-01-01T10:05:27.925Z,1001.03
2018-01-01T10:06:56.339Z,1001.07
2018-01-01T10:08:22.573Z,1001.07
2018-01-01T10:09:49.743Z,1001.03
2018-01-01T10:11:16.906Z,1001.15
2018-01-01T10:12:44.123Z,1001.07
2018-01-01T10:14:11.480Z,1001.10
2018-01-01T10:15:38.630Z,1001.10
2018-01-01T10:17:05.801Z,1001.08
2018-01-01T10:18:32.867Z,1001.15
2018-01-01T10:20:00.244Z,1001.12
2018-01-01T10:21:27.636Z,1001.17
2018-01-01T10:22:54.936Z,1001.16
2018-01-01T10:24:22.380Z,1001.22
2018-01-01T10:25:49.800Z,1001.30
2018-01-01T10:27:16.937Z,1001.31
2018-01-01T10:28:44.064Z,1001.38
2018-01-01T10:30:11.421Z,1001.37
2018-01-01T10:31:38.741Z,1001.37
2018-01-01T10:33:06.059Z,1001.38
2018-01-01T10:34:33.351Z,1001.38
2018-01-01T10:36:00.557Z,1001.36
2018-01-01T10:37:27.888Z,1001.44
2018-01-01T10:38:54.983Z,1001.45
2018-01-01T10:40:22.163Z,1001.51
2018-01-01T10:41:49.415Z,1001.56
2018-01-01T10:43:16.808Z,1001.57
2018-01-01T10:44:44.010Z,1001.70
2018-01-01T10:46:11.219Z,1001.72
2018-01-01T10:47:38.485Z,1001.75
2018-01-01T10:49:05.585Z,1001.74
2018-01-01T10:50:32.897Z,1001.78
2018-01-01T10:51:59.930Z,1001.81
2018-01-01T10:53:27.115Z,1001.81
2018-01-01T10:54:54.305Z,1001.86
2018-01-01T10:56:21.574Z,1001.87
2018-01-01T10:57:48.950Z,1001.89
2018-01-01T10:59:16.112Z,1001.96
2018-01-01T11:00:43.418Z,1002.00
2018-01-01T11:02:10.600Z,1002.00
2018-01-01T11:03:37.905Z,1002.05
2018-01-01T11:05:05.263Z,1002.04
2018-01-01T11:06:32.532Z,1002.06
2018-01-01T11:07:59.769Z,1002.00
2018-01-01T11:09:27.237Z,1002.04
2018-01-01T11:10:54.528Z,1001.99
2018-01-01T11:12:21.753Z,1002.06
2018-01-01T11:13:48.909Z,1002.06
2018-01-01T11:15:15.885Z,1002.09
2018-01-01T11:16:43.127Z,1002.14
2018-01-01T11:18:10.476Z,1002.14
2018-01-01T11:19:37.672Z,1002.13
2018-01-01T11:21:05.184Z,1002.14
2018-01-01T11:22:32.324Z,1002.18
2018-01-01T11:23:59.473Z,1002.06
2018-01-01T11:25:26.720Z,1002.11
2018-01-01T11:26:53.508Z,1002.10
2018-01-01T11:28:20.619Z,1002.10
2018-01-01T11:29:47.694Z,1002.15
2018-01-01T11:31:14.906Z,1002.18
2018-01-01T11:32:42.078Z,1002.11
2018-01-01T11:34:09.223Z,1002.17
2018-01-01T11:35:36.647Z,1002.11
2018-01-01T11:37:03.852Z,1002.09
2018-01-01T11:38:31.069Z,1002.10
2018-01-01T11:39:58.354Z,1002.06
2018-01-01T11:41:25.591Z,1002.06
2018-01-01T11:42:52.583Z,1002.07
2018-01-01T11:44:20.002Z,1002.04
2018-01-01T11:45:47.124Z,1001.97
2018-01-01T11:47:13.860Z,1001.99
2018-01-01T11:48:40.747Z,1002.00
2018-01-01T11:50:08.073Z,1001.99
2018-01-01T11:51:35.363Z,1002.00
2018-01-01T11:53:02.557Z,1001.93
2018-01-01T11:54:29.939Z,1002.01
2018-01-01T11:55:57.245Z,1002.02
2018-01-01T11:57:24.405Z,1002.10
2018-01-01T11:58:51.649Z,1002.00
2018-01-01T12:00:18.620Z,1002.03
2018-01-01T12:01:45.759Z,1002.05
2018-01-01T12:03:13.109Z,1002.05
2018-01-01T12:04:40.498Z,1002.04
2018-01-01T12:06:07.723Z,1002.08
2018-01-01T12:07:34.888Z,1001.98
2018-01-01T12:09:02.104Z,1002.04
2018-01-01T12:10:29.484Z,1002.00
2018-01-01T12:11:56.485Z,1002.02
2018-01-01T12:13:23.676Z,1001.99
2018-01-01T12:14:51.040Z,1002.00
2018-01-01T12:16:18.385Z,1002.03
2018-01-01T12:17:45.793Z,1001.99
2018-01-01T12:19:13.064Z,1002.00
2018-01-01T12:20:40.287Z,1001.99
2018-01-01T12:22:07.228Z,1001.98
2018-01-01T12:23:34.480Z,1001.99
2018-01-01T12:25:01.427Z,1002.02
2018-01-01T12:26:28.548Z,1002.00
2018-01-01T12:27:55.784Z,1001.98
2018-01-01T12:29:23.148Z,1001.97
2018-01-01T12:30:50.553Z,1001.97
2018-01-01T12:32:17.864Z,1001.95
2018-01-01T12:33:45.129Z,1001.98
2018-01-01T12:35:12.190Z,1001.98
2018-01-01T12:36:39.395Z,1001.96
2018-01-01T12:38:06.663Z,1001.96
2018-01-01T12:39:33.912Z,1001.97
2018-01-01T12:41:01.074Z,1002.00
2018-01-01T12:42:28.273Z,1002.04
2018-01-01T12:43:55.628Z,1002.03
2018-01-01T12:45:22.907Z,1002.02
2018-01-01T12:46:50.345Z,1002.00
2018-01-01T12:48:17.481Z,1002.00
2018-01-01T12:49:44.730Z,1001.99
2018-01-01T12:51:12.110Z,1001.96
2018-01-01T12:52:39.286Z,1001.92
2018-01-01T12:54:06.532Z,1001.91
2018-01-01T12:55:30.725Z,1001.95
2018-01-01T12:57:01.156Z,1001.95
2018-01-01T12:58:28.372Z,1001.96
2018-01-01T12:59:55.628Z,1001.95
2018-01-01T13:01:22.959Z,1001.98
2018-01-01T13:02:50.200Z,1002.02
2018-01-01T13:04:17.462Z,1002.05
2018-01-01T13:05:44.404Z,1002.02
2018-01-01T13:07:11.689Z,1002.03
2018-01-01T13:08:38.977Z,1002.00
2018-01-01T13:10:06.298Z,1001.99
2018-01-01T13:11:33.730Z,1001.99
2018-01-01T13:13:00.466Z,1002.02
2018-01-01T13:14:27.709Z,1002.00
2018-01-01T13:15:54.869Z,1002.02
2018-01-01T13:17:21.919Z,1002.03
2018-01-01T13:18:49.097Z,1002.02
2018-01-01T13:20:15.943Z,1002.05
2018-01-01T13:21:43.261Z,1002.05
2018-01-01T13:23:10.503Z,1002.10
2018-01-01T13:24:37.870Z,1002.08
2018-01-01T13:26:05.195Z,1002.04
2018-01-01T13:27:32.632Z,1002.08
2018-01-01T13:28:59.914Z,1002.03
2018-01-01T13:30:27.295Z,1001.97
2018-01-01T13:31:54.498Z,1002.06
2018-01-01T13:33:21.910Z,1002.09
2018-01-01T13:34:48.736Z,1002.05
2018-01-01T13:36:15.957Z,1002.02
2018-01-01T13:37:42.846Z,1002.02
2018-01-01T13:39:10.379Z,1002.02
2018-01-01T13:40:37.536Z,1002.05
2018-01-01T13:42:04.766Z,1002.09
2018-01-01T13:43:31.843Z,1002.08
2018-01-01T13:44:58.974Z,1002.07
2018-01-01T13:46:26.242Z,1002.03
2018-01-01T13:47:53.513Z,1002.02
2018-01-01T13:49:20.124Z,1002.00
2018-01-01T13:50:47.534Z,1002.01
2018-01-01T13:52:14.779Z,1001.97
2018-01-01T13:53:42.033Z,1001.99
2018-01-01T13:55:09.119Z,1002.01
2018-01-01T13:56:36.450Z,1002.01
2018-01-01T13:58:03.798Z,1002.03
2018-01-01T13:59:31.283Z,1002.02
2018-01-01T14:00:58.450Z,1002.02
2018-01-01T14:02:25.828Z,1002.05
2018-01-01T14:03:53.136Z,1002.07
2018-01-01T14:05:20.375Z,1002.03
2018-01-01T14:06:47.584Z,1002.05
2018-01-01T14:08:14.651Z,1002.07
2018-01-01T14:09:42.097Z,1002.13
2018-01-01T14:11:09.536Z,1002.16
2018-01-01T14:12:36.523Z,1002.12
2018-01-01T14:14:03.656Z,1002.13
2018-01-01T14:15:30.892Z,1002.13
2018-01-01T14:16:58.143Z,1002.11
2018-01-01T14:18:25.535Z,1002.14
2018-01-01T14:19:52.885Z,1002.20
2018-01-01T14:21:19.979Z,1002.24
2018-01-01T14:22:47.176Z,1002.26
2018-01-01T14:24:14.297Z,1002.26
2018-01-01T14:25:41.526Z,1002.25
2018-01-01T14:27:08.746Z,1002.25
2018-01-01T14:28:36.227Z,1002.25
2018-01-01T14:30:03.350Z,1002.23
2018-01-01T14:31:30.784Z,1002.21
2018-01-01T14:32:57.939Z,1002.24
2018-01-01T14:34:25.300Z,1002.20
2018-01-01T14:35:52.736Z,1002.22
2018-01-01T14:37:20.008Z,1002.18
2018-01-01T14:38:47.374Z,1002.18
2018-01-01T14:40:14.674Z,1002.19
2018-01-01T14:41:51.267Z,1002.23
2018-01-01T14:43:18.474Z,1002.26
2018-01-01T14:44:45.288Z,1002.28
2018-01-01T14:46:12.395Z,1002.23
2018-01-01T14:47:39.875Z,1002.24
2018-01-01T14:49:06.894Z,1002.25
2018-01-01T14:50:34.242Z,1002.28
2018-01-01T14:52:01.411Z,1002.26
2018-01-01T14:53:28.542Z,1002.29
2018-01-01T14:54:55.435Z,1002.30
2018-01-01T14:56:22.691Z,1002.30
2018-01-01T14:57:49.910Z,1002.30
2018-01-01T14:59:16.997Z,1002.29
2018-01-01T15:00:44.235Z,1002.31
2018-01-01T15:02:11.452Z,1002.35
2018-01-01T15:03:38.759Z,1002.35
2018-01-01T15:05:05.939Z,1002.38
2018-01-01T15:06:33.436Z,1002.40
2018-01-01T15:08:00.412Z,1002.40
2018-01-01T15:09:27.644Z,1002.41
2018-01-01T15:10:54.703Z,1002.38
2018-01-01T15:12:21.738Z,1002.42
2018-01-01T15:13:48.908Z,1002.44
2018-01-01T15:15:15.878Z,1002.44
2018-01-01T15:16:42.798Z,1002.45
2018-01-01T15:18:10.038Z,1002.43
2018-01-01T15:19:37.317Z,1002.44
2018-01-01T15:21:04.307Z,1002.40
2018-01-01T15:22:31.538Z,1002.38
2018-01-01T15:23:58.843Z,1002.36
2018-01-01T15:25:26.336Z,1002.36
2018-01-01T15:26:53.342Z,1002.37
2018-01-01T15:28:20.688Z,1002.31
2018-01-01T15:29:47.802Z,1002.30
2018-01-01T15:31:15.066Z,1002.30
2018-01-01T15:32:42.373Z,1002.30
2018-01-01T15:34:09.689Z,1002.26
2018-01-01T15:35:36.614Z,1002.28
2018-01-01T15:37:04.033Z,1002.30
2018-01-01T15:38:31.207Z,1002.29
2018-01-01T15:39:58.161Z,1002.30
2018-01-01T15:41:25.476Z,1002.33
2018-01-01T15:42:52.302Z,1002.37
2018-01-01T15:44:19.696Z,1002.41
2018-01-01T15:45:47.012Z,1002.42
2018-01-01T15:47:14.187Z,1002.40
2018-01-01T15:48:40.711Z,1002.39
2018-01-01T15:50:08.119Z,1002.37
2018-01-01T15:51:35.152Z,1002.37
2018-01-01T15:53:02.263Z,1002.36
2018-01-01T15:54:29.461Z,1002.38
2018-01-01T15:55:56.789Z,1002.39
2018-01-01T15:57:23.979Z,1002.37
2018-01-01T15:58:51.238Z,1002.34
2018-01-01T16:00:18.542Z,1002.28
2018-01-01T16:01:45.712Z,1002.31
2018-01-01T16:03:12.675Z,1002.29
2018-01-01T16:04:40.093Z,1002.27
2018-01-01T16:06:06.852Z,1002.29
2018-01-01T16:07:34.199Z,1002.30
2018-01-01T16:09:01.652Z,1002.28
2018-01-01T16:10:28.572Z,1002.33
2018-01-01T16:11:55.832Z,1002.35
2018-01-01T16:13:23.236Z,1002.38
2018-01-01T16:14:50.358Z,1002.33
2018-01-01T16:16:17.309Z,1002.36
2018-01-01T16:17:44.661Z,1002.39
2018-01-01T16:19:11.597Z,1002.40
2018-01-01T16:20:38.310Z,1002.43
2018-01-01T16:22:05.497Z,1002.43
2018-01-01T16:23:32.130Z,1002.43
2018-01-01T16:24:59.429Z,1002.44
2018-01-01T16:26:26.830Z,1002.47
2018-01-01T16:27:54.067Z,1002.46
2018-01-01T16:29:21.228Z,1002.47
2018-01-01T16:30:47.994Z,1002.45
2018-01-01T16:32:15.405Z,1002.50
2018-01-01T16:33:42.747Z,1002.47
2018-01-01T16:35:09.816Z,1002.52
2018-01-01T16:36:36.677Z,1002.57
2018-01-01T16:38:04.027Z,1002.54
2018-01-01T16:39:31.009Z,1002.54
2018-01-01T16:40:58.324Z,1002.54
2018-01-01T16:42:25.294Z,1002.55
2018-01-01T16:43:52.513Z,1002.55
2018-01-01T16:45:19.932Z,1002.52
2018-01-01T16:46:46.924Z,1002.54
2018-01-01T16:48:14.100Z,1002.53
2018-01-01T16:49:44.251Z,1002.56
2018-01-01T16:51:08.513Z,1002.57
2018-01-01T16:52:35.896Z,1002.60
2018-01-01T16:54:03.362Z,1002.59
2018-01-01T16:55:30.701Z,1002.60
2018-01-01T16:56:57.885Z,1002.64
2018-01-01T16:58:25.286Z,1002.60
2018-01-01T16:59:52.448Z,1002.67
2018-01-01T17:01:19.496Z,1002.63
2018-01-01T17:02:46.348Z,1002.63
2018-01-01T17:04:13.479Z,1002.62
2018-01-01T17:05:40.735Z,1002.61
2018-01-01T17:07:08.128Z,1002.66
2018-01-01T17:08:35.097Z,1002.63
2018-01-01T17:10:02.401Z,1002.62
2018-01-01T17:11:29.782Z,1002.65
2018-01-01T17:12:57.165Z,1002.61
2018-01-01T17:14:24.550Z,1002.65
2018-01-01T17:15:51.742Z,1002.68
2018-01-01T17:17:18.945Z,1002.66
2018-01-01T17:18:45.980Z,1002.63
2018-01-01T17:20:10.055Z,1002.66
2018-01-01T17:21:40.202Z,1002.63
2018-01-01T17:23:07.721Z,1002.62
2018-01-01T17:24:35.184Z,1002.60
2018-01-01T17:26:02.381Z,1002.64
2018-01-01T17:27:29.705Z,1002.67
2018-01-01T17:28:57.054Z,1002.68
2018-01-01T17:30:24.171Z,1002.68
2018-01-01T17:31:51.539Z,1002.65
2018-01-01T17:33:18.672Z,1002.65
2018-01-01T17:34:45.728Z,1002.69
2018-01-01T17:36:12.798Z,1002.63
2018-01-01T17:37:40.970Z,1002.61
2018-01-01T17:39:07.267Z,1002.59
2018-01-01T17:40:31.474Z,1002.60
2018-01-01T17:42:01.610Z,1002.58
2018-01-01T17:43:28.872Z,1002.59
2018-01-01T17:44:56.145Z,1002.64
2018-01-01T17:46:23.550Z,1002.67
2018-01-01T17:47:51.018Z,1002.68
2018-01-01T17:49:18.263Z,1002.72
2018-01-01T17:50:45.280Z,1002.75